Time;durP1;ratioP1;P1;durP2;ratioP2;P2;SDS_P1;SDS_P2;PMS_P1;PMS_P2;Temp;Humidity;BMP_temperature;BMP_pressure;BME280_temperature;BME280_humidity;BME280_pressure;Samples;Min_cycle;Max_cycle;Signal;HPM_P1;HPM_P2
2022/12/19 00:01:17;;;;;;;50.13;16.20;;;;;;;;;;4934590;29;20039;-77
2022/12/19 00:04:18;;;;;;;49.57;17.77;;;;;;;;;;4934485;29;20372;-76
2022/12/19 00:06:44;;;;;;;47.93;17.07;;;;;;;;;;4935628;29;20055;-76
2022/12/19 00:09:10;;;;;;;52.77;16.97;;;;;;;;;;4935460;29;20124;-76
2022/12/19 00:11:37;;;;;;;45.73;15.43;;;;;;;;;;4934533;29;20031;-74
2022/12/19 00:14:03;;;;;;;54.87;17.10;;;;;;;;;;4936667;29;20047;-76
2022/12/19 00:16:30;;;;;;;49.20;17.00;;;;;;;;;;4934292;29;20074;-75
2022/12/19 00:18:58;;;;;;;43.77;16.53;;;;;;;;;;4935636;29;20037;-75
2022/12/19 00:21:27;;;;;;;48.47;16.50;;;;;;;;;;4934024;29;20036;-73
2022/12/19 00:23:53;;;;;;;42.07;17.37;;;;;;;;;;4936460;29;20133;-76
2022/12/19 00:26:32;;;;;;;46.63;16.30;;;;;;;;;;4954723;29;20118;-74
2022/12/19 00:29:04;;;;;;;39.33;14.70;;;;;;;;;;4952856;28;20623;-76
2022/12/19 00:31:32;;;;;;;45.30;15.52;;;;;;;;;;4954181;29;20042;-74
2022/12/19 00:33:58;;;;;;;44.57;14.97;;;;;;;;;;4955523;29;20027;-74
2022/12/19 00:36:30;;;;;;;44.47;16.10;;;;;;;;;;4955005;29;20040;-74
2022/12/19 00:38:59;;;;;;;37.35;15.05;;;;;;;;;;4938008;29;20054;-75
2022/12/19 00:41:29;;;;;;;49.37;17.03;;;;;;;;;;4955079;29;20035;-75
2022/12/19 00:43:57;;;;;;;37.90;14.37;;;;;;;;;;4937275;29;20504;-75
2022/12/19 00:46:22;;;;;;;46.87;16.90;;;;;;;;;;4937256;29;20023;-75
2022/12/19 00:48:48;;;;;;;45.80;15.50;;;;;;;;;;4952702;29;20023;-74
2022/12/19 00:51:19;;;;;;;49.50;16.87;;;;;;;;;;4954017;29;20031;-75
2022/12/19 00:53:46;;;;;;;52.23;18.43;;;;;;;;;;4952170;29;20023;-74
2022/12/19 00:56:18;;;;;;;44.17;15.83;;;;;;;;;;4952100;28;20474;-76
2022/12/19 00:58:44;;;;;;;48.70;17.43;;;;;;;;;;4954225;29;20027;-75
2022/12/19 01:01:17;;;;;;;46.93;16.03;;;;;;;;;;4953626;28;20042;-74
2022/12/19 01:03:45;;;;;;;46.13;18.10;;;;;;;;;;4954900;29;20031;-74
2022/12/19 01:06:11;;;;;;;45.20;17.00;;;;;;;;;;4954266;29;20366;-75
2022/12/19 01:08:36;;;;;;;51.70;18.33;;;;;;;;;;4952515;28;20031;-73
2022/12/19 01:11:02;;;;;;;44.93;16.53;;;;;;;;;;4953438;29;20037;-74
2022/12/19 01:13:30;;;;;;;51.40;18.67;;;;;;;;;;4953781;29;20035;-75
2022/12/19 01:16:00;;;;;;;56.83;19.50;;;;;;;;;;4936429;29;20082;-74
2022/12/19 01:18:26;;;;;;;55.70;19.90;;;;;;;;;;4952401;29;20023;-74
2022/12/19 01:20:51;;;;;;;50.40;18.07;;;;;;;;;;4936409;29;20050;-76
2022/12/19 01:23:17;;;;;;;51.47;18.23;;;;;;;;;;4951479;29;20490;-74
2022/12/19 01:25:46;;;;;;;57.27;19.63;;;;;;;;;;4952069;29;20121;-74
2022/12/19 01:28:14;;;;;;;56.10;18.47;;;;;;;;;;4951261;29;20605;-76
2022/12/19 01:30:40;;;;;;;60.30;19.63;;;;;;;;;;4935742;29;20501;-77
2022/12/19 01:33:05;;;;;;;55.67;18.43;;;;;;;;;;4951222;29;20087;-76
2022/12/19 01:35:30;;;;;;;52.97;18.67;;;;;;;;;;4951980;29;20030;-76
2022/12/19 01:37:56;;;;;;;51.17;18.33;;;;;;;;;;4961638;28;20031;-76
2022/12/19 01:40:22;;;;;;;48.23;17.70;;;;;;;;;;4968041;28;20031;-76
2022/12/19 01:42:48;;;;;;;48.43;18.40;;;;;;;;;;4951414;28;20391;-76
2022/12/19 01:45:13;;;;;;;51.13;19.70;;;;;;;;;;4968062;28;20038;-76
2022/12/19 01:47:47;;;;;;;56.40;18.17;;;;;;;;;;4953068;28;20020;-76
2022/12/19 01:50:16;;;;;;;64.13;19.57;;;;;;;;;;4967387;28;20042;-76
2022/12/19 01:52:43;;;;;;;55.50;18.80;;;;;;;;;;4967627;28;20147;-76
2022/12/19 01:55:10;;;;;;;51.03;18.70;;;;;;;;;;4951824;29;20480;-77
2022/12/19 01:57:36;;;;;;;50.20;18.27;;;;;;;;;;4967835;28;20027;-76
2022/12/19 02:00:03;;;;;;;53.20;19.20;;;;;;;;;;4953489;28;20478;-76
2022/12/19 02:02:36;;;;;;;52.13;19.47;;;;;;;;;;4953557;28;20415;-76
2022/12/19 02:05:03;;;;;;;;;;;;;;;;;;4955170;28;20055;-76
2022/12/19 02:07:29;;;;;;;44.70;16.00;;;;;;;;;;4968262;28;19910;-76
2022/12/19 02:09:56;;;;;;;55.23;18.63;;;;;;;;;;4953062;28;20050;-76
2022/12/19 02:12:24;;;;;;;58.07;20.47;;;;;;;;;;4967399;28;20034;-75
2022/12/19 02:14:50;;;;;;;56.00;19.10;;;;;;;;;;4951275;29;20501;-76
2022/12/19 02:17:24;;;;;;;61.10;20.73;;;;;;;;;;4953092;28;20030;-77
2022/12/19 02:20:24;;;;;;;53.53;19.80;;;;;;;;;;4951555;29;20395;-76
2022/12/19 02:23:11;;;;;;;65.00;18.67;;;;;;;;;;4952619;28;20118;-76
2022/12/19 02:25:42;;;;;;;62.47;19.97;;;;;;;;;;4952261;28;20082;-76
2022/12/19 02:28:35;;;;;;;61.93;19.97;;;;;;;;;;4952259;28;20033;-78
2022/12/19 02:31:21;;;;;;;58.17;19.53;;;;;;;;;;4952677;29;20502;-76
2022/12/19 02:34:00;;;;;;;68.80;20.07;;;;;;;;;;4967109;28;20030;-76
2022/12/19 02:36:29;;;;;;;56.00;18.67;;;;;;;;;;4953492;28;20082;-76
2022/12/19 02:39:01;;;;;;;56.93;20.73;;;;;;;;;;4937683;29;20509;-77
2022/12/19 02:41:49;;;;;;;65.85;20.70;;;;;;;;;;4952410;29;20027;-77
2022/12/19 02:44:24;;;;;;;63.23;21.87;;;;;;;;;;4952260;29;20470;-76
2022/12/19 02:46:51;;;;;;;52.20;18.93;;;;;;;;;;4950890;29;20101;-76
2022/12/19 02:49:16;;;;;;;58.87;19.37;;;;;;;;;;4952149;29;20034;-76
2022/12/19 02:51:42;;;;;;;55.87;18.60;;;;;;;;;;4952296;29;20035;-77
2022/12/19 02:54:08;;;;;;;56.77;20.43;;;;;;;;;;4951324;28;20038;-76
2022/12/19 02:56:51;;;;;;;66.87;19.80;;;;;;;;;;4952204;29;20035;-76
2022/12/19 02:59:51;;;;;;;56.20;17.93;;;;;;;;;;4950319;29;20361;-76
2022/12/19 03:02:45;;;;;;;58.90;20.60;;;;;;;;;;4951095;29;20420;-75
2022/12/19 03:05:16;;;;;;;57.13;18.53;;;;;;;;;;4934124;29;20050;-75
2022/12/19 03:08:21;;;;;;;52.05;20.40;;;;;;;;;;4934689;29;20104;-76
2022/12/19 03:11:07;;;;;;;68.93;19.87;;;;;;;;;;4934864;29;20099;-77
2022/12/19 03:13:51;;;;;;;54.30;19.40;;;;;;;;;;4950735;29;20027;-76
2022/12/19 03:16:17;;;;;;;64.97;20.47;;;;;;;;;;4934729;29;20031;-77
2022/12/19 03:18:43;;;;;;;65.07;21.37;;;;;;;;;;4952125;29;20361;-78
2022/12/19 03:21:36;;;;;;;56.77;19.83;;;;;;;;;;4952051;28;20025;-77
2022/12/19 03:24:03;;;;;;;63.90;20.67;;;;;;;;;;4951872;29;20032;-77
2022/12/19 03:26:35;;;;;;;52.70;20.63;;;;;;;;;;4950305;29;20110;-76
2022/12/19 03:29:06;;;;;;;;;;;;;;;;;;4952394;29;20023;-76
2022/12/19 03:31:33;;;;;;;53.07;18.67;;;;;;;;;;4952066;29;19914;-77
2022/12/19 03:34:03;;;;;;;68.87;21.93;;;;;;;;;;4952173;28;20020;-76
2022/12/19 03:36:37;;;;;;;73.50;22.70;;;;;;;;;;4933917;29;20492;-77
2022/12/19 03:39:06;;;;;;;61.27;21.47;;;;;;;;;;4966620;28;20089;-77
2022/12/19 03:44:22;;;;;;;72.57;20.73;;;;;;;;;;4951547;29;20061;-76
2022/12/19 03:47:09;;;;;;;55.73;18.87;;;;;;;;;;4950634;29;20023;-76
2022/12/19 03:49:35;;;;;;;61.67;21.90;;;;;;;;;;4966760;28;20098;-77
2022/12/19 03:52:18;;;;;;;61.90;23.23;;;;;;;;;;4952025;28;20456;-76
2022/12/19 03:55:15;;;;;;;54.50;19.87;;;;;;;;;;4950350;29;20121;-76
2022/12/19 03:57:46;;;;;;;57.47;18.87;;;;;;;;;;4945411;29;20047;-76
2022/12/19 04:00:14;;;;;;;70.68;24.98;;;;;;;;;;4965752;28;20039;-77
2022/12/19 04:02:47;;;;;;;59.93;20.40;;;;;;;;;;4949728;29;20186;-77
2022/12/19 04:05:27;;;;;;;62.47;21.27;;;;;;;;;;4953106;28;20035;-75
2022/12/19 04:07:57;;;;;;;68.60;23.33;;;;;;;;;;4969002;28;20031;-76
2022/12/19 04:10:26;;;;;;;69.73;23.10;;;;;;;;;;4968752;28;20043;-76
2022/12/19 04:12:57;;;;;;;69.33;23.30;;;;;;;;;;4954712;28;20038;-76
2022/12/19 04:15:32;;;;;;;69.00;21.85;;;;;;;;;;4969309;28;20079;-76
2022/12/19 04:17:59;;;;;;;84.97;23.73;;;;;;;;;;4954779;28;20492;-76
2022/12/19 04:20:27;;;;;;;60.23;20.47;;;;;;;;;;4954467;28;20042;-76
2022/12/19 04:23:21;;;;;;;65.77;22.53;;;;;;;;;;4955999;29;20027;-77
2022/12/19 04:25:51;;;;;;;59.83;20.57;;;;;;;;;;4971723;28;20038;-78
2022/12/19 04:28:33;;;;;;;66.20;19.93;;;;;;;;;;4950189;28;20032;-77
2022/12/19 04:30:59;;;;;;;;;;;;;;;;;;4950166;29;20027;-76
2022/12/19 04:33:24;;;;;;;57.60;19.63;;;;;;;;;;4934743;29;19911;-76
2022/12/19 04:35:50;;;;;;;56.07;21.57;;;;;;;;;;4933753;29;20396;-76
2022/12/19 04:38:15;;;;;;;57.23;20.93;;;;;;;;;;4949262;29;20038;-76
2022/12/19 04:40:41;;;;;;;63.93;22.97;;;;;;;;;;4954361;28;20122;-75
2022/12/19 04:43:07;;;;;;;65.27;18.40;;;;;;;;;;4953214;28;20069;-76
2022/12/19 04:45:33;;;;;;;67.03;22.30;;;;;;;;;;4954051;28;20134;-76
2022/12/19 04:47:58;;;;;;;62.67;21.27;;;;;;;;;;4954128;29;20083;-76
2022/12/19 04:50:24;;;;;;;60.90;21.20;;;;;;;;;;4968640;28;20480;-76
2022/12/19 04:52:49;;;;;;;63.30;23.47;;;;;;;;;;4952841;29;20063;-76
2022/12/19 04:55:15;;;;;;;59.43;22.47;;;;;;;;;;4952635;29;20475;-75
2022/12/19 04:57:40;;;;;;;56.77;21.03;;;;;;;;;;4968542;28;20547;-76
2022/12/19 05:00:07;;;;;;;60.83;21.13;;;;;;;;;;4968673;28;20031;-76
2022/12/19 05:02:34;;;;;;;72.57;23.00;;;;;;;;;;4952174;28;20039;-76
2022/12/19 05:04:59;;;;;;;56.00;19.87;;;;;;;;;;4953850;29;20062;-76
2022/12/19 05:07:25;;;;;;;63.83;20.87;;;;;;;;;;4954332;28;20404;-75
2022/12/19 05:09:50;;;;;;;72.23;21.37;;;;;;;;;;4953434;29;20031;-75
2022/12/19 05:12:16;;;;;;;68.83;24.60;;;;;;;;;;4955712;29;20361;-75
2022/12/19 05:14:41;;;;;;;64.23;23.90;;;;;;;;;;4957511;28;20062;-76
2022/12/19 05:17:07;;;;;;;58.47;21.60;;;;;;;;;;4967917;28;20032;-75
2022/12/19 05:19:32;;;;;;;64.90;21.90;;;;;;;;;;4968358;28;20043;-76
2022/12/19 05:21:58;;;;;;;66.47;22.60;;;;;;;;;;4954250;28;20042;-76
2022/12/19 05:24:23;;;;;;;69.30;22.67;;;;;;;;;;4968323;28;20557;-76
2022/12/19 05:26:49;;;;;;;67.43;24.20;;;;;;;;;;4968675;28;20031;-76
2022/12/19 05:29:16;;;;;;;61.37;21.83;;;;;;;;;;4953555;29;20514;-75
2022/12/19 05:31:41;;;;;;;71.30;21.53;;;;;;;;;;4952979;29;20031;-77
2022/12/19 05:34:08;;;;;;;71.00;23.57;;;;;;;;;;4968552;28;20054;-77
2022/12/19 05:36:34;;;;;;;75.23;23.83;;;;;;;;;;4952988;29;20053;-76
2022/12/19 05:38:59;;;;;;;65.60;21.93;;;;;;;;;;4952210;29;20473;-76
2022/12/19 05:41:25;;;;;;;71.80;24.80;;;;;;;;;;4953558;29;20131;-76
2022/12/19 05:43:53;;;;;;;64.40;23.07;;;;;;;;;;4935586;29;20491;-77
2022/12/19 05:46:19;;;;;;;59.73;21.47;;;;;;;;;;4953360;28;20038;-77
2022/12/19 05:48:46;;;;;;;66.60;24.30;;;;;;;;;;4952248;29;20035;-77
2022/12/19 05:51:11;;;;;;;70.60;22.27;;;;;;;;;;4953341;29;20030;-77
2022/12/19 05:53:38;;;;;;;72.90;24.30;;;;;;;;;;4953542;29;20039;-77
2022/12/19 05:56:06;;;;;;;69.43;21.83;;;;;;;;;;4951991;29;20038;-76
2022/12/19 05:58:32;;;;;;;61.80;21.57;;;;;;;;;;4953227;28;20086;-77
2022/12/19 06:01:05;;;;;;;62.37;22.00;;;;;;;;;;4953395;29;20108;-77
2022/12/19 06:03:30;;;;;;;;;;;;;;;;;;4952071;29;20078;-75
2022/12/19 06:05:55;;;;;;;58.80;20.90;;;;;;;;;;4953275;29;19914;-76
2022/12/19 06:08:21;;;;;;;65.30;21.77;;;;;;;;;;4953408;28;20031;-76
2022/12/19 06:10:46;;;;;;;75.77;23.77;;;;;;;;;;4951862;29;20224;-75
2022/12/19 06:13:12;;;;;;;89.03;25.40;;;;;;;;;;4944365;28;20551;-74
2022/12/19 06:15:39;;;;;;;60.63;22.80;;;;;;;;;;4943421;28;20035;-78
2022/12/19 06:18:04;;;;;;;56.57;21.47;;;;;;;;;;4944136;29;20026;-76
2022/12/19 06:20:30;;;;;;;64.37;22.73;;;;;;;;;;4931558;29;20613;-76
2022/12/19 06:22:55;;;;;;;59.70;22.80;;;;;;;;;;4944197;29;20031;-78
2022/12/19 06:25:21;;;;;;;63.43;22.33;;;;;;;;;;4946775;29;20031;-77
2022/12/19 06:27:46;;;;;;;70.47;22.60;;;;;;;;;;4944301;28;20019;-82
2022/12/19 06:30:12;;;;;;;69.23;21.50;;;;;;;;;;4947901;29;20125;-78
2022/12/19 06:32:37;;;;;;;68.33;22.13;;;;;;;;;;4948301;29;20180;-77
2022/12/19 06:35:03;;;;;;;60.57;21.73;;;;;;;;;;4947575;29;20035;-80
2022/12/19 06:37:29;;;;;;;66.57;21.00;;;;;;;;;;4950075;28;20588;-78
2022/12/19 06:39:54;;;;;;;61.03;21.30;;;;;;;;;;4951352;29;20030;-79
2022/12/19 06:42:22;;;;;;;70.43;21.07;;;;;;;;;;4935402;29;20088;-79
2022/12/19 06:44:53;;;;;;;63.97;23.27;;;;;;;;;;4930257;29;20106;-78
2022/12/19 06:47:19;;;;;;;78.13;25.40;;;;;;;;;;4944836;29;20023;-79
2022/12/19 06:49:48;;;;;;;64.70;20.67;;;;;;;;;;4935701;29;20031;-79
2022/12/19 06:52:14;;;;;;;61.53;20.60;;;;;;;;;;4947578;28;20338;-78
2022/12/19 06:54:40;;;;;;;62.93;20.07;;;;;;;;;;4939431;28;20847;-77
2022/12/19 06:57:06;;;;;;;63.50;23.13;;;;;;;;;;4941680;28;20096;-78
2022/12/19 06:59:32;;;;;;;64.20;22.47;;;;;;;;;;4951194;29;20027;-77
2022/12/19 07:02:14;;;;;;;68.27;20.70;;;;;;;;;;4952258;28;20023;-84
2022/12/19 07:04:47;;;;;;;72.28;23.83;;;;;;;;;;4939816;28;20023;-76
2022/12/19 07:07:12;;;;;;;61.20;22.33;;;;;;;;;;4927182;29;20149;-82
2022/12/19 07:09:38;;;;;;;61.13;24.37;;;;;;;;;;4930755;29;20039;-80
2022/12/19 07:12:04;;;;;;;68.87;22.97;;;;;;;;;;4954280;28;20114;-77
2022/12/19 07:14:31;;;;;;;68.50;23.27;;;;;;;;;;4930716;28;20204;-76
2022/12/19 07:17:00;;;;;;;66.40;23.63;;;;;;;;;;4939466;29;20484;-75
2022/12/19 07:19:36;;;;;;;74.87;24.73;;;;;;;;;;4932260;29;20027;-80
2022/12/19 07:22:02;;;;;;;67.10;24.17;;;;;;;;;;4944542;28;20050;-74
2022/12/19 07:24:29;;;;;;;63.20;22.20;;;;;;;;;;4946451;28;20035;-76
2022/12/19 07:26:55;;;;;;;55.23;21.97;;;;;;;;;;4942792;29;20035;-76
2022/12/19 07:29:20;;;;;;;72.90;23.47;;;;;;;;;;4944693;28;20491;-77
2022/12/19 07:31:47;;;;;;;62.07;24.33;;;;;;;;;;4947985;29;20055;-77
2022/12/19 07:34:12;;;;;;;64.70;22.53;;;;;;;;;;4946901;28;20051;-77
2022/12/19 07:36:38;;;;;;;64.53;23.73;;;;;;;;;;4938004;29;20031;-75
2022/12/19 07:39:03;;;;;;;73.90;25.67;;;;;;;;;;4935472;29;20054;-75
2022/12/19 07:41:30;;;;;;;70.90;25.70;;;;;;;;;;4935048;29;20400;-77
2022/12/19 07:43:55;;;;;;;67.33;25.10;;;;;;;;;;4939070;28;20060;-74
2022/12/19 07:46:21;;;;;;;65.00;24.77;;;;;;;;;;4944682;29;20105;-76
2022/12/19 07:48:47;;;;;;;60.77;22.17;;;;;;;;;;4943944;28;20135;-75
2022/12/19 07:51:12;;;;;;;73.67;25.63;;;;;;;;;;4932574;28;20051;-79
2022/12/19 07:53:38;;;;;;;67.40;23.13;;;;;;;;;;4944029;29;20039;-77
2022/12/19 07:56:04;;;;;;;78.47;23.13;;;;;;;;;;4954707;29;20098;-79
2022/12/19 07:58:29;;;;;;;72.73;23.47;;;;;;;;;;4934164;29;20062;-77
2022/12/19 08:00:56;;;;;;;70.07;23.97;;;;;;;;;;4947183;29;20114;-75
2022/12/19 08:03:23;;;;;;;67.33;24.33;;;;;;;;;;4949708;28;20117;-74
2022/12/19 08:05:49;;;;;;;68.83;24.73;;;;;;;;;;4942620;28;20023;-75
2022/12/19 08:08:16;;;;;;;78.30;25.77;;;;;;;;;;4946649;29;20086;-76
2022/12/19 08:10:42;;;;;;;64.93;24.23;;;;;;;;;;4937009;29;20034;-77
2022/12/19 08:13:07;;;;;;;65.90;23.93;;;;;;;;;;4950116;28;20097;-77
2022/12/19 08:15:33;;;;;;;68.50;25.07;;;;;;;;;;4944732;28;20035;-78
2022/12/19 08:17:59;;;;;;;78.57;25.30;;;;;;;;;;4946775;28;20034;-75
2022/12/19 08:20:24;;;;;;;76.27;24.87;;;;;;;;;;4954457;28;20357;-73
2022/12/19 08:22:50;;;;;;;75.57;24.97;;;;;;;;;;4940525;28;20043;-76
2022/12/19 08:25:15;;;;;;;69.97;26.13;;;;;;;;;;4927848;28;20061;-73
2022/12/19 08:27:41;;;;;;;71.30;24.73;;;;;;;;;;4944918;28;20034;-76
2022/12/19 08:30:13;;;;;;;79.73;25.13;;;;;;;;;;4944624;28;20419;-76
2022/12/19 08:32:39;;;;;;;69.60;27.13;;;;;;;;;;4949291;28;20136;-76
2022/12/19 08:35:06;;;;;;;80.57;26.87;;;;;;;;;;4932406;29;20863;-76
2022/12/19 08:37:31;;;;;;;86.60;26.43;;;;;;;;;;4949751;28;20039;-75
2022/12/19 08:39:57;;;;;;;79.70;26.70;;;;;;;;;;4939067;28;20079;-77
2022/12/19 08:42:22;;;;;;;75.70;27.60;;;;;;;;;;4942743;29;20051;-79
2022/12/19 08:44:48;;;;;;;81.33;26.83;;;;;;;;;;4945670;28;20306;-79
2022/12/19 08:47:15;;;;;;;72.80;26.50;;;;;;;;;;4934060;29;20682;-75
2022/12/19 08:49:40;;;;;;;66.03;25.73;;;;;;;;;;4948740;29;20488;-77
2022/12/19 08:52:06;;;;;;;76.67;26.33;;;;;;;;;;4947673;28;20670;-76
2022/12/19 08:54:31;;;;;;;77.43;25.70;;;;;;;;;;4949601;28;20034;-76
2022/12/19 08:56:57;;;;;;;76.00;28.10;;;;;;;;;;4947036;29;20572;-77
2022/12/19 08:59:22;;;;;;;77.70;27.33;;;;;;;;;;4933594;29;20444;-75
2022/12/19 09:01:49;;;;;;;73.17;26.07;;;;;;;;;;4928298;29;20027;-76
2022/12/19 09:04:15;;;;;;;74.97;26.93;;;;;;;;;;4947971;28;20043;-75
2022/12/19 09:06:40;;;;;;;70.87;25.43;;;;;;;;;;4941064;29;20031;-77
2022/12/19 09:09:06;;;;;;;73.10;27.83;;;;;;;;;;4946149;28;20121;-77
2022/12/19 09:11:31;;;;;;;64.97;25.53;;;;;;;;;;4949844;28;20035;-76
2022/12/19 09:13:57;;;;;;;68.27;25.57;;;;;;;;;;4950993;28;20512;-79
2022/12/19 09:16:24;;;;;;;85.70;27.53;;;;;;;;;;4942984;28;20110;-76
2022/12/19 09:18:53;;;;;;;63.23;26.47;;;;;;;;;;4945369;29;20494;-79
2022/12/19 09:21:21;;;;;;;74.00;33.10;;;;;;;;;;4944605;28;20030;-77
2022/12/19 09:23:52;;;;;;;111.07;51.03;;;;;;;;;;4930595;29;20027;-78
2022/12/19 09:26:19;;;;;;;72.57;27.37;;;;;;;;;;4937045;29;20027;-78
2022/12/19 09:28:46;;;;;;;62.30;23.40;;;;;;;;;;4946261;28;20043;-78
2022/12/19 09:31:18;;;;;;;70.67;23.67;;;;;;;;;;4943050;28;20586;-77
2022/12/19 09:33:44;;;;;;;58.45;23.35;;;;;;;;;;4944758;29;20122;-78
2022/12/19 09:36:12;;;;;;;64.80;24.43;;;;;;;;;;4937216;28;20457;-78
2022/12/19 09:38:38;;;;;;;63.50;23.40;;;;;;;;;;4943843;28;20023;-78
2022/12/19 09:41:39;;;;;;;77.33;26.93;;;;;;;;;;4944938;28;20030;-78
2022/12/19 09:44:36;;;;;;;68.70;25.67;;;;;;;;;;4834313;29;20046;-78
2022/12/19 09:47:22;;;;;;;69.47;24.73;;;;;;;;;;4918298;29;20034;-79
2022/12/19 09:49:50;;;;;;;63.50;24.17;;;;;;;;;;4941220;28;20031;-78
2022/12/19 09:52:31;;;;;;;69.20;23.57;;;;;;;;;;4942683;28;20058;-77
2022/12/19 09:55:19;;;;;;;71.32;24.90;;;;;;;;;;4933893;29;20070;-78
2022/12/19 09:57:53;;;;;;;71.00;25.43;;;;;;;;;;4925393;29;20157;-77
2022/12/19 10:00:22;;;;;;;67.03;23.83;;;;;;;;;;4924572;29;20051;-77
2022/12/19 10:03:03;;;;;;;65.60;24.87;;;;;;;;;;4924260;29;20039;-77
2022/12/19 10:06:07;;;;;;;63.27;24.07;;;;;;;;;;4920658;29;20123;-78
2022/12/19 10:08:39;;;;;;;83.23;31.00;;;;;;;;;;4910920;29;20043;-78
2022/12/19 10:11:17;;;;;;;74.20;26.88;;;;;;;;;;4931498;29;20032;-79
2022/12/19 10:14:25;;;;;;;59.60;24.10;;;;;;;;;;4927462;29;20493;-80
2022/12/19 10:17:25;;;;;;;56.17;21.83;;;;;;;;;;4937741;28;20027;-78
2022/12/19 10:20:15;;;;;;;64.97;23.37;;;;;;;;;;4927151;29;20130;-78
2022/12/19 10:23:08;;;;;;;64.17;22.37;;;;;;;;;;4938465;28;20647;-79
2022/12/19 10:26:03;;;;;;;73.37;25.50;;;;;;;;;;4917131;29;20039;-73
2022/12/19 10:28:51;;;;;;;65.20;23.17;;;;;;;;;;4920072;29;20028;-78
2022/12/19 10:31:17;;;;;;;57.77;23.10;;;;;;;;;;4940770;29;20039;-75
2022/12/19 10:34:01;;;;;;;63.63;22.90;;;;;;;;;;4940287;28;20032;-77
2022/12/19 10:36:39;;;;;;;59.43;22.20;;;;;;;;;;4939714;28;20038;-75
2022/12/19 10:39:15;;;;;;;62.57;22.63;;;;;;;;;;4925439;29;20235;-79
2022/12/19 10:41:43;;;;;;;87.70;24.53;;;;;;;;;;4941031;28;20042;-79
2022/12/19 10:44:09;;;;;;;66.10;24.97;;;;;;;;;;4934118;29;20054;-79
2022/12/19 10:46:38;;;;;;;72.70;27.07;;;;;;;;;;4926689;29;20043;-79
2022/12/19 10:49:28;;;;;;;66.30;25.27;;;;;;;;;;4925518;29;20107;-79
2022/12/19 10:52:06;;;;;;;70.13;26.30;;;;;;;;;;4931173;29;20090;-79
2022/12/19 10:54:38;;;;;;;54.27;23.17;;;;;;;;;;4946727;29;20111;-78
2022/12/19 10:57:29;;;;;;;61.72;23.23;;;;;;;;;;4927263;29;20633;-78
2022/12/19 10:59:59;;;;;;;64.97;25.13;;;;;;;;;;4920991;29;20039;-79
2022/12/19 11:02:33;;;;;;;66.47;27.43;;;;;;;;;;4920382;29;20050;-79
2022/12/19 11:05:01;;;;;;;61.03;23.97;;;;;;;;;;4927910;29;20364;-79
2022/12/19 11:07:26;;;;;;;68.63;25.70;;;;;;;;;;4928282;29;20062;-78
2022/12/19 11:09:52;;;;;;;71.23;27.33;;;;;;;;;;4936043;28;20063;-79
2022/12/19 11:12:18;;;;;;;66.40;24.90;;;;;;;;;;4940578;28;20041;-76
2022/12/19 11:15:21;;;;;;;62.07;24.03;;;;;;;;;;4923346;29;20037;-80
2022/12/19 11:17:47;;;;;;;64.23;24.43;;;;;;;;;;4924535;29;20111;-79
2022/12/19 11:20:21;;;;;;;59.70;24.30;;;;;;;;;;4936701;29;20472;-80
2022/12/19 11:22:59;;;;;;;64.77;25.03;;;;;;;;;;4944299;28;20030;-81
2022/12/19 11:25:42;;;;;;;66.77;25.80;;;;;;;;;;4947444;28;20032;-81
2022/12/19 11:28:18;;;;;;;;;;;;;;;;;;4918017;29;20889;-79
2022/12/19 11:31:14;;;;;;;65.80;24.83;;;;;;;;;;4944150;29;20043;-78
2022/12/19 11:33:44;;;;;;;63.67;25.43;;;;;;;;;;4944649;29;20118;-80
2022/12/19 11:36:37;;;;;;;62.77;24.87;;;;;;;;;;4938460;28;20039;-78
2022/12/19 11:39:11;;;;;;;68.00;24.60;;;;;;;;;;4921413;29;20062;-75
2022/12/19 11:41:42;;;;;;;56.83;24.10;;;;;;;;;;4922135;29;20032;-79
2022/12/19 11:44:44;;;;;;;62.45;24.08;;;;;;;;;;4927090;29;20052;-80
2022/12/19 11:47:31;;;;;;;61.92;22.98;;;;;;;;;;4901499;29;20027;-77
2022/12/19 11:50:09;;;;;;;65.70;24.20;;;;;;;;;;4925164;29;20130;-80
2022/12/19 11:53:04;;;;;;;57.60;23.83;;;;;;;;;;4933876;28;20039;-78
2022/12/19 11:55:40;;;;;;;58.67;23.60;;;;;;;;;;4923895;29;20047;-79
2022/12/19 11:58:09;;;;;;;59.97;22.77;;;;;;;;;;4935616;28;20046;-79
2022/12/19 12:00:36;;;;;;;70.73;27.90;;;;;;;;;;4937953;29;20024;-80
2022/12/19 12:03:18;;;;;;;60.33;26.13;;;;;;;;;;4923390;29;20216;-78
2022/12/19 12:05:45;;;;;;;71.57;27.65;;;;;;;;;;4924959;29;20448;-77
2022/12/19 12:08:30;;;;;;;63.50;23.10;;;;;;;;;;4932117;29;20020;-76
2022/12/19 12:11:11;;;;;;;56.33;22.47;;;;;;;;;;4940829;29;20024;-81
2022/12/19 12:13:41;;;;;;;66.47;24.58;;;;;;;;;;4923428;29;20055;-75
2022/12/19 12:16:12;;;;;;;66.80;24.37;;;;;;;;;;4926005;29;20480;-79
2022/12/19 12:19:08;;;;;;;60.05;22.20;;;;;;;;;;4940594;29;20032;-75
2022/12/19 12:22:15;;;;;;;55.57;22.20;;;;;;;;;;4920418;29;20428;-82
2022/12/19 12:24:46;;;;;;;56.60;22.87;;;;;;;;;;4940766;29;20059;-75
2022/12/19 12:27:14;;;;;;;66.20;22.37;;;;;;;;;;4927022;29;20257;-79
2022/12/19 12:30:15;;;;;;;62.77;21.73;;;;;;;;;;4939923;29;20043;-80
2022/12/19 12:33:13;;;;;;;63.00;21.40;;;;;;;;;;4943145;28;20150;-78
2022/12/19 12:35:46;;;;;;;53.73;20.73;;;;;;;;;;4921861;29;20107;-79
2022/12/19 12:38:44;;;;;;;59.90;21.93;;;;;;;;;;4933715;29;20051;-80
2022/12/19 12:42:03;;;;;;;68.70;21.43;;;;;;;;;;4949415;29;20063;-80
2022/12/19 12:44:40;;;;;;;59.37;22.23;;;;;;;;;;4896540;29;20092;-81
2022/12/19 12:47:20;;;;;;;51.57;22.10;;;;;;;;;;4942480;29;20459;-81
2022/12/19 12:50:05;;;;;;;57.90;22.50;;;;;;;;;;4917524;29;20039;-81
2022/12/19 12:52:50;;;;;;;59.67;23.23;;;;;;;;;;4923287;29;20114;-79
2022/12/19 12:55:28;;;;;;;58.27;21.60;;;;;;;;;;4943566;29;20135;-79
2022/12/19 12:57:54;;;;;;;55.47;21.73;;;;;;;;;;4941792;29;20489;-78
2022/12/19 13:00:24;;;;;;;59.70;23.20;;;;;;;;;;4935550;29;20042;-78
2022/12/19 13:03:09;;;;;;;54.83;20.17;;;;;;;;;;4928323;29;20043;-80
2022/12/19 13:05:40;;;;;;;60.57;21.67;;;;;;;;;;4930504;29;20188;-81
2022/12/19 13:08:43;;;;;;;58.30;22.97;;;;;;;;;;4930062;29;20110;-80
2022/12/19 13:14:04;;;;;;;54.20;22.33;;;;;;;;;;4929051;29;20042;-80
2022/12/19 13:16:44;;;;;;;59.70;23.17;;;;;;;;;;4942921;28;20055;-79
2022/12/19 13:19:15;;;;;;;61.70;21.93;;;;;;;;;;4927337;29;20436;-80
2022/12/19 13:22:19;;;;;;;62.30;23.47;;;;;;;;;;4930266;29;20040;-80
2022/12/19 13:24:50;;;;;;;64.50;23.70;;;;;;;;;;4931273;29;20047;-78
2022/12/19 13:27:22;;;;;;;52.08;22.25;;;;;;;;;;4934055;29;20051;-79
2022/12/19 13:30:00;;;;;;;;;;;;;;;;;;4928542;29;20028;-78
2022/12/19 13:32:32;;;;;;;52.73;18.73;;;;;;;;;;4927751;29;20347;-78
2022/12/19 13:34:59;;;;;;;67.53;22.98;;;;;;;;;;4929717;29;20054;-77
2022/12/19 13:37:39;;;;;;;59.03;21.73;;;;;;;;;;4923397;29;20024;-80
2022/12/19 13:40:25;;;;;;;55.43;23.97;;;;;;;;;;4907704;28;20100;-76
2022/12/19 13:43:48;;;;;;;59.07;22.83;;;;;;;;;;4934290;29;20114;-78
2022/12/19 13:46:38;;;;;;;61.97;21.63;;;;;;;;;;4944534;29;20118;-78
2022/12/19 13:49:16;;;;;;;59.20;23.93;;;;;;;;;;4942713;28;20392;-77
2022/12/19 13:51:51;;;;;;;62.20;23.37;;;;;;;;;;4926224;28;20035;-78
2022/12/19 13:54:31;;;;;;;60.43;22.60;;;;;;;;;;4925083;29;20031;-78
2022/12/19 13:56:59;;;;;;;59.90;23.35;;;;;;;;;;4943484;28;20024;-77
2022/12/19 13:59:31;;;;;;;62.20;25.23;;;;;;;;;;4947117;28;20027;-78
2022/12/19 14:02:06;;;;;;;67.95;24.25;;;;;;;;;;4930203;28;20034;-78
2022/12/19 14:04:32;;;;;;;61.97;23.37;;;;;;;;;;4931274;29;20182;-77
2022/12/19 14:07:03;;;;;;;61.43;25.30;;;;;;;;;;4927818;29;20030;-79
2022/12/19 14:09:42;;;;;;;59.10;21.90;;;;;;;;;;4937160;29;20031;-80
2022/12/19 14:15:38;;;;;;;56.70;24.83;;;;;;;;;;4944502;28;20046;-77
2022/12/19 14:18:24;;;;;;;61.63;23.20;;;;;;;;;;4928847;29;20126;-81
2022/12/19 14:21:06;;;;;;;59.47;23.43;;;;;;;;;;4930453;28;20121;-78
2022/12/19 14:23:31;;;;;;;55.83;22.67;;;;;;;;;;4939958;28;20024;-77
2022/12/19 14:25:57;;;;;;;61.63;24.60;;;;;;;;;;4926071;29;20031;-78
2022/12/19 14:28:42;;;;;;;65.23;24.93;;;;;;;;;;4946672;29;20073;-80
2022/12/19 14:31:13;;;;;;;68.83;24.10;;;;;;;;;;4946743;28;20122;-78
2022/12/19 14:33:43;;;;;;;64.67;25.33;;;;;;;;;;4945244;28;20031;-78
2022/12/19 14:36:09;;;;;;;66.70;26.60;;;;;;;;;;4932895;29;20130;-78
2022/12/19 14:38:36;;;;;;;63.83;25.17;;;;;;;;;;4951609;28;20055;-78
2022/12/19 14:41:02;;;;;;;64.90;24.47;;;;;;;;;;4950575;29;20091;-80
2022/12/19 14:43:42;;;;;;;70.73;24.90;;;;;;;;;;4942780;28;20054;-80
2022/12/19 14:46:19;;;;;;;62.43;25.73;;;;;;;;;;4946376;28;20041;-79
2022/12/19 14:48:53;;;;;;;66.30;25.10;;;;;;;;;;4938983;28;20057;-79
2022/12/19 14:51:33;;;;;;;67.77;24.53;;;;;;;;;;4941978;28;20099;-78
2022/12/19 14:54:07;;;;;;;69.77;28.20;;;;;;;;;;4944004;28;20034;-78
2022/12/19 14:56:55;;;;;;;64.13;26.00;;;;;;;;;;4934819;29;20349;-78
2022/12/19 14:59:53;;;;;;;76.47;30.07;;;;;;;;;;4926716;29;20152;-80